createdAt,value
2018-08-20T00:00:37.479Z,10.30
2018-08-20T00:03:05.190Z,10.37
2018-08-20T00:05:35.565Z,10.17
2018-08-20T00:08:03.288Z,9.37
2018-08-20T00:10:30.965Z,9.67
2018-08-20T00:12:58.471Z,10.97
2018-08-20T00:15:26.147Z,12.00
2018-08-20T00:17:53.587Z,9.43
2018-08-20T00:20:21.049Z,9.27
2018-08-20T00:22:48.482Z,8.13
2018-08-20T00:25:17.374Z,8.60
2018-08-20T00:27:45.581Z,8.90
2018-08-20T00:30:14.961Z,8.80
2018-08-20T00:32:44.625Z,9.10
2018-08-20T00:35:13.174Z,9.00
2018-08-20T00:37:43.157Z,8.57
2018-08-20T00:40:10.641Z,10.17
2018-08-20T00:42:38.083Z,9.50
2018-08-20T00:45:05.866Z,7.70
2018-08-20T00:47:33.411Z,9.00
2018-08-20T00:50:00.841Z,9.50
2018-08-20T00:52:28.233Z,9.70
2018-08-20T00:54:55.727Z,9.37
2018-08-20T00:57:23.193Z,9.33
2018-08-20T00:59:50.649Z,9.47
2018-08-20T01:02:22.677Z,8.57
2018-08-20T01:04:50.093Z,10.23
2018-08-20T01:07:17.563Z,8.53
2018-08-20T01:09:45.940Z,10.30
2018-08-20T01:12:13.446Z,9.43
2018-08-20T01:14:40.946Z,8.07
2018-08-20T01:17:08.449Z,8.73
2018-08-20T01:19:35.835Z,8.77
2018-08-20T01:22:03.572Z,10.30
2018-08-20T01:24:31.339Z,8.90
2018-08-20T01:26:58.950Z,9.43
2018-08-20T01:29:26.745Z,10.13
2018-08-20T01:31:54.170Z,9.70
2018-08-20T01:34:21.631Z,12.90
2018-08-20T01:36:49.038Z,9.73
2018-08-20T01:39:16.541Z,8.10
2018-08-20T01:41:43.969Z,8.80
2018-08-20T01:44:11.493Z,8.80
2018-08-20T01:46:38.975Z,10.77
2018-08-20T01:49:06.962Z,9.70
2018-08-20T01:51:34.462Z,11.07
2018-08-20T01:54:02.006Z,8.50
2018-08-20T01:56:29.537Z,9.20
2018-08-20T01:58:56.956Z,8.70
2018-08-20T02:01:24.482Z,9.00
2018-08-20T02:03:51.997Z,9.50
2018-08-20T02:06:20.277Z,8.23
2018-08-20T02:08:47.901Z,8.43
2018-08-20T02:11:15.394Z,8.07
2018-08-20T02:13:42.838Z,7.70
2018-08-20T02:16:10.317Z,8.63
2018-08-20T02:18:37.795Z,7.83
2018-08-20T02:21:05.549Z,7.63
2018-08-20T02:23:33.006Z,6.83
2018-08-20T02:26:00.499Z,7.90
2018-08-20T02:28:28.018Z,7.57
2018-08-20T02:30:55.520Z,7.70
2018-08-20T02:33:23.014Z,7.77
2018-08-20T02:35:50.444Z,7.10
2018-08-20T02:38:18.013Z,7.90
2018-08-20T02:40:45.677Z,9.10
2018-08-20T02:43:13.115Z,8.17
2018-08-20T02:45:40.575Z,8.93
2018-08-20T02:48:08.413Z,8.80
2018-08-20T02:50:35.970Z,9.80
2018-08-20T02:53:03.576Z,8.70
2018-08-20T02:55:31.081Z,8.37
2018-08-20T02:57:58.570Z,9.37
2018-08-20T03:00:26.201Z,8.63
2018-08-20T03:02:54.985Z,9.60
2018-08-20T03:05:22.353Z,9.27
2018-08-20T03:07:49.738Z,9.00
2018-08-20T03:10:17.193Z,9.73
2018-08-20T03:12:44.654Z,10.33
2018-08-20T03:15:12.081Z,8.87
2018-08-20T03:17:39.598Z,9.20
2018-08-20T03:20:07.386Z,9.43
2018-08-20T03:22:35.136Z,9.23
2018-08-20T03:25:02.655Z,8.30
2018-08-20T03:27:30.054Z,8.70
2018-08-20T03:29:57.620Z,9.30
2018-08-20T03:32:25.046Z,8.77
2018-08-20T03:34:52.488Z,8.10
2018-08-20T03:37:19.958Z,9.20
2018-08-20T03:39:47.449Z,7.17
2018-08-20T03:42:14.925Z,7.30
2018-08-20T03:44:42.387Z,8.27
2018-08-20T03:47:09.864Z,7.90
2018-08-20T03:49:37.439Z,6.30
2018-08-20T03:52:05.216Z,6.90
2018-08-20T03:54:32.829Z,6.00
2018-08-20T03:57:00.286Z,5.93
2018-08-20T03:59:35.098Z,6.23
2018-08-20T04:02:03.607Z,5.50
2018-08-20T04:04:31.210Z,6.37
2018-08-20T04:07:00.478Z,6.10
2018-08-20T04:09:28.475Z,5.43
2018-08-20T04:11:56.081Z,5.50
2018-08-20T04:14:23.530Z,5.57
2018-08-20T04:16:51.047Z,6.30
2018-08-20T04:19:18.547Z,23.93
2018-08-20T04:21:46.063Z,24.43
2018-08-20T04:24:13.489Z,19.70
2018-08-20T04:26:41.106Z,55.00
2018-08-20T04:29:08.553Z,43.80
2018-08-20T04:31:35.993Z,24.57
2018-08-20T04:34:03.467Z,14.60
2018-08-20T04:36:31.070Z,10.03
2018-08-20T04:38:58.726Z,6.53
2018-08-20T04:41:26.212Z,5.50
2018-08-20T04:43:53.743Z,5.00
2018-08-20T04:46:21.198Z,4.87
2018-08-20T04:48:48.601Z,5.20
2018-08-20T04:51:16.736Z,4.50
2018-08-20T04:53:44.623Z,4.17
2018-08-20T04:56:12.080Z,4.03
2018-08-20T04:58:39.641Z,4.10
2018-08-20T05:01:07.132Z,3.57
2018-08-20T05:03:34.659Z,3.13
2018-08-20T05:06:02.268Z,3.50
2018-08-20T05:08:29.654Z,3.60
2018-08-20T05:10:57.056Z,3.97
2018-08-20T05:13:24.602Z,3.60
2018-08-20T05:15:52.058Z,3.80
2018-08-20T05:18:19.424Z,3.27
2018-08-20T05:20:46.955Z,40.70
2018-08-20T05:23:14.478Z,26.60
2018-08-20T05:25:42.043Z,15.70
2018-08-20T05:28:09.596Z,8.37
2018-08-20T05:30:37.180Z,6.03
2018-08-20T05:33:05.053Z,4.67
2018-08-20T05:35:32.671Z,4.00
2018-08-20T05:38:00.114Z,4.20
2018-08-20T05:40:27.605Z,3.87
2018-08-20T05:42:55.091Z,4.10
2018-08-20T05:45:22.632Z,3.80
2018-08-20T05:47:50.078Z,4.33
2018-08-20T05:50:17.622Z,4.00
2018-08-20T05:52:45.129Z,4.53
2018-08-20T05:55:12.685Z,3.30
2018-08-20T05:57:40.115Z,3.50
2018-08-20T06:00:14.856Z,3.93
2018-08-20T06:02:42.777Z,5.43
2018-08-20T06:05:10.297Z,3.97
2018-08-20T06:07:37.868Z,4.60
2018-08-20T06:10:06.139Z,5.10
2018-08-20T06:12:34.218Z,4.47
2018-08-20T06:15:01.906Z,4.27
2018-08-20T06:17:29.447Z,4.80
2018-08-20T06:19:56.853Z,5.77
2018-08-20T06:22:24.331Z,5.80
2018-08-20T06:24:51.824Z,6.30
2018-08-20T06:27:19.243Z,5.73
2018-08-20T06:29:46.729Z,6.87
2018-08-20T06:32:14.311Z,5.17
2018-08-20T06:34:41.817Z,5.97
2018-08-20T06:37:09.350Z,6.50
2018-08-20T06:39:36.886Z,6.67
2018-08-20T06:42:04.661Z,5.80
2018-08-20T06:44:32.087Z,6.30
2018-08-20T06:46:59.655Z,6.60
2018-08-20T06:49:27.144Z,6.50
2018-08-20T06:51:54.596Z,6.80
2018-08-20T06:54:22.066Z,7.10
2018-08-20T06:56:49.635Z,7.13
2018-08-20T06:59:17.088Z,7.67
2018-08-20T07:01:44.758Z,6.83
2018-08-20T07:04:12.154Z,9.00
2018-08-20T07:06:39.737Z,8.00
2018-08-20T07:09:07.668Z,9.03
2018-08-20T07:11:35.336Z,8.60
2018-08-20T07:14:02.922Z,8.90
2018-08-20T07:16:30.828Z,8.00
2018-08-20T07:18:58.363Z,8.70
2018-08-20T07:21:25.971Z,7.77
2018-08-20T07:23:53.461Z,9.40
2018-08-20T07:26:20.895Z,8.30
2018-08-20T07:28:48.595Z,8.77
2018-08-20T07:31:16.126Z,8.60
2018-08-20T07:33:43.684Z,8.63
2018-08-20T07:36:11.235Z,8.80
2018-08-20T07:38:38.681Z,8.53
2018-08-20T07:41:06.164Z,9.30
2018-08-20T07:43:33.644Z,9.97
2018-08-20T07:46:01.205Z,8.70
2018-08-20T07:48:28.660Z,8.73
2018-08-20T07:50:56.217Z,8.70
2018-08-20T07:53:23.652Z,9.10
2018-08-20T07:55:51.182Z,8.60
2018-08-20T07:58:18.853Z,9.77
2018-08-20T08:00:46.336Z,9.20
2018-08-20T08:03:14.044Z,11.50
2018-08-20T08:05:41.619Z,9.33
2018-08-20T08:08:09.166Z,9.20
2018-08-20T08:10:36.603Z,9.23
2018-08-20T08:13:04.125Z,9.67
2018-08-20T08:15:31.605Z,10.20
2018-08-20T08:17:59.229Z,10.40
2018-08-20T08:20:26.727Z,9.03
2018-08-20T08:22:54.133Z,9.03
2018-08-20T08:25:21.572Z,8.93
2018-08-20T08:27:49.230Z,9.20
2018-08-20T08:30:17.934Z,9.80
2018-08-20T08:32:45.842Z,8.70
2018-08-20T08:35:13.804Z,9.90
2018-08-20T08:37:41.475Z,11.90
2018-08-20T08:40:10.250Z,10.20
2018-08-20T08:42:37.798Z,10.27
2018-08-20T08:45:07.961Z,10.60
2018-08-20T08:47:35.443Z,12.07
2018-08-20T08:50:03.251Z,10.60
2018-08-20T08:52:31.051Z,9.47
2018-08-20T08:54:58.490Z,9.13
2018-08-20T08:57:26.133Z,11.87
2018-08-20T08:59:53.587Z,9.90
2018-08-20T09:02:21.078Z,22.30
2018-08-20T09:04:48.682Z,39.37
2018-08-20T09:07:16.323Z,30.40
2018-08-20T09:09:43.770Z,20.37
2018-08-20T09:12:11.310Z,16.07
2018-08-20T09:14:38.751Z,13.17
2018-08-20T09:17:06.281Z,11.60
2018-08-20T09:19:33.691Z,10.13
2018-08-20T09:22:01.386Z,10.17
2018-08-20T09:24:28.895Z,10.30
2018-08-20T09:26:56.363Z,10.30
2018-08-20T09:29:24.296Z,9.20
2018-08-20T09:31:51.793Z,10.80
2018-08-20T09:34:19.184Z,9.97
2018-08-20T09:36:46.590Z,10.50
2018-08-20T09:39:14.056Z,11.20
2018-08-20T09:41:41.725Z,9.80
2018-08-20T09:44:09.174Z,44.17
2018-08-20T09:46:36.587Z,48.10
2018-08-20T09:49:04.088Z,31.63
2018-08-20T09:51:31.852Z,21.93
2018-08-20T09:53:59.329Z,18.90
2018-08-20T09:56:26.841Z,15.77
2018-08-20T09:58:54.326Z,14.40
2018-08-20T10:01:21.736Z,12.43
2018-08-20T10:03:49.210Z,12.13
2018-08-20T10:06:16.725Z,12.87
2018-08-20T10:08:44.492Z,11.40
2018-08-20T10:11:12.832Z,11.13
2018-08-20T10:13:40.397Z,13.03
2018-08-20T10:16:07.989Z,12.80
2018-08-20T10:18:35.763Z,11.77
2018-08-20T10:21:03.295Z,11.60
2018-08-20T10:23:30.780Z,13.60
2018-08-20T10:25:58.325Z,29.10
2018-08-20T10:28:25.885Z,24.50
2018-08-20T10:30:53.362Z,20.10
2018-08-20T10:33:20.867Z,16.60
2018-08-20T10:35:48.311Z,16.90
2018-08-20T10:38:15.741Z,14.07
2018-08-20T10:40:43.318Z,14.67
2018-08-20T10:43:10.837Z,14.30
2018-08-20T10:45:44.078Z,13.60
2018-08-20T10:48:11.541Z,14.67
2018-08-20T10:50:39.057Z,13.93
2018-08-20T10:53:06.593Z,14.43
2018-08-20T10:55:34.153Z,15.23
2018-08-20T10:58:01.655Z,13.30
2018-08-20T11:00:29.159Z,13.13
2018-08-20T11:02:56.730Z,13.10
2018-08-20T11:05:24.196Z,12.80
2018-08-20T11:07:51.757Z,14.73
2018-08-20T11:10:19.537Z,14.33
2018-08-20T11:12:47.068Z,14.33
2018-08-20T11:15:14.635Z,12.90
2018-08-20T11:17:42.135Z,13.90
2018-08-20T11:20:13.217Z,12.17
2018-08-20T11:22:41.025Z,11.43
2018-08-20T11:25:09.375Z,13.37
2018-08-20T11:27:37.349Z,18.03
2018-08-20T11:30:05.641Z,25.50
2018-08-20T11:32:33.411Z,22.07
2018-08-20T11:35:00.930Z,16.90
2018-08-20T11:37:28.857Z,16.60
2018-08-20T11:39:56.278Z,16.23
2018-08-20T11:42:23.692Z,21.10
2018-08-20T11:44:51.166Z,21.13
2018-08-20T11:47:18.628Z,18.60
2018-08-20T11:49:46.024Z,15.70
2018-08-20T11:52:13.613Z,13.73
2018-08-20T11:54:41.287Z,15.00
2018-08-20T11:57:08.811Z,17.90
2018-08-20T11:59:36.390Z,19.50
2018-08-20T12:02:04.127Z,18.80
2018-08-20T12:04:31.773Z,16.20
2018-08-20T12:06:59.285Z,27.30
2018-08-20T12:09:26.676Z,50.40
2018-08-20T12:11:54.231Z,35.73
2018-08-20T12:14:21.799Z,23.33
2018-08-20T12:16:49.301Z,18.07
2018-08-20T12:19:16.966Z,15.13
2018-08-20T12:21:44.531Z,12.77
2018-08-20T12:24:12.021Z,11.80
2018-08-20T12:26:39.491Z,11.13
2018-08-20T12:29:07.001Z,11.57
2018-08-20T12:31:34.414Z,11.10
2018-08-20T12:34:02.033Z,13.17
2018-08-20T12:36:29.544Z,15.20
2018-08-20T12:38:57.175Z,24.60
2018-08-20T12:41:24.635Z,49.60
2018-08-20T12:43:52.065Z,21.33
2018-08-20T12:46:19.834Z,18.17
2018-08-20T12:48:49.026Z,18.70
2018-08-20T12:51:16.606Z,13.27
2018-08-20T12:53:44.288Z,14.90
2018-08-20T12:56:11.862Z,20.70
2018-08-20T12:58:43.753Z,23.83
2018-08-20T13:01:11.731Z,18.70
2018-08-20T13:03:39.226Z,14.30
2018-08-20T13:06:06.745Z,17.80
2018-08-20T13:08:34.144Z,16.13
2018-08-20T13:11:01.799Z,16.40
2018-08-20T13:13:29.677Z,14.40
2018-08-20T13:15:57.501Z,15.97
2018-08-20T13:18:24.967Z,15.37
2018-08-20T13:20:52.506Z,15.13
2018-08-20T13:23:19.961Z,12.53
2018-08-20T13:25:47.409Z,11.83
2018-08-20T13:28:14.947Z,15.00
2018-08-20T13:30:42.647Z,12.47
2018-08-20T13:33:10.099Z,13.07
2018-08-20T13:35:37.627Z,14.00
2018-08-20T13:38:05.842Z,13.70
2018-08-20T13:40:33.445Z,13.20
2018-08-20T13:43:01.002Z,13.90
2018-08-20T13:45:28.569Z,11.63
2018-08-20T13:47:56.154Z,13.83
2018-08-20T13:50:23.702Z,13.90
2018-08-20T13:52:51.267Z,13.70
2018-08-20T13:55:18.770Z,14.57
2018-08-20T13:57:49.610Z,13.97
2018-08-20T14:00:18.490Z,13.43
2018-08-20T14:02:46.079Z,14.70
2018-08-20T14:05:14.625Z,12.20
2018-08-20T14:07:42.228Z,70.43
2018-08-20T14:10:10.760Z,33.37
2018-08-20T14:12:39.138Z,23.47
2018-08-20T14:15:07.582Z,14.97
2018-08-20T14:17:35.250Z,11.67
2018-08-20T14:20:02.949Z,12.27
2018-08-20T14:22:30.907Z,9.93
2018-08-20T14:24:58.712Z,9.30
2018-08-20T14:27:27.190Z,9.03
2018-08-20T14:29:54.680Z,7.00
2018-08-20T14:32:22.445Z,8.20
2018-08-20T14:34:49.902Z,6.90
2018-08-20T14:37:17.538Z,5.40
2018-08-20T14:39:45.059Z,5.87
2018-08-20T14:42:12.542Z,5.87
2018-08-20T14:44:41.938Z,5.30
2018-08-20T14:47:09.542Z,5.83
2018-08-20T14:49:37.058Z,4.27
2018-08-20T14:52:04.579Z,5.20
2018-08-20T14:54:32.052Z,4.03
2018-08-20T14:56:59.740Z,4.50
2018-08-20T14:59:27.136Z,4.60
2018-08-20T15:01:54.676Z,5.67
2018-08-20T15:04:22.129Z,5.60
2018-08-20T15:06:58.009Z,7.00
2018-08-20T15:09:27.009Z,9.13
2018-08-20T15:11:55.002Z,7.90
2018-08-20T15:14:22.459Z,6.57
2018-08-20T15:16:50.284Z,5.53
2018-08-20T15:19:18.563Z,4.87
2018-08-20T15:21:46.411Z,4.37
2018-08-20T15:24:14.575Z,6.10
2018-08-20T15:26:42.237Z,6.27
2018-08-20T15:29:09.698Z,4.93
2018-08-20T15:31:37.471Z,5.33
2018-08-20T15:34:05.133Z,4.40
2018-08-20T15:36:32.894Z,4.70
2018-08-20T15:39:00.679Z,4.17
2018-08-20T15:41:28.454Z,3.53
2018-08-20T15:43:56.025Z,3.13
2018-08-20T15:46:23.549Z,2.90
2018-08-20T15:48:51.444Z,2.57
2018-08-20T15:51:18.945Z,2.33
2018-08-20T15:53:46.585Z,2.00
2018-08-20T15:56:14.185Z,12.87
2018-08-20T15:58:41.823Z,21.00
2018-08-20T16:01:09.326Z,10.80
2018-08-20T16:03:37.001Z,3.57
2018-08-20T16:06:04.947Z,1.80
2018-08-20T16:08:32.668Z,1.67
2018-08-20T16:11:00.364Z,1.47
2018-08-20T16:13:27.813Z,1.30
2018-08-20T16:15:55.604Z,1.50
2018-08-20T16:18:23.073Z,2.00
2018-08-20T16:20:50.969Z,2.40
2018-08-20T16:23:18.509Z,3.77
2018-08-20T16:25:46.002Z,2.90
2018-08-20T16:28:13.517Z,2.23
2018-08-20T16:30:41.213Z,2.10
2018-08-20T16:33:08.814Z,2.20
2018-08-20T16:35:36.286Z,3.40
2018-08-20T16:38:04.028Z,2.97
2018-08-20T16:40:31.442Z,2.83
2018-08-20T16:42:59.227Z,3.20
2018-08-20T16:45:26.751Z,3.97
2018-08-20T16:47:54.395Z,3.70
2018-08-20T16:50:21.921Z,3.00
2018-08-20T16:52:49.373Z,2.90
2018-08-20T16:55:17.077Z,3.10
2018-08-20T16:57:44.608Z,3.13
2018-08-20T17:00:12.575Z,2.40
2018-08-20T17:02:41.176Z,2.60
2018-08-20T17:05:10.180Z,2.80
2018-08-20T17:07:38.094Z,2.30
2018-08-20T17:10:07.493Z,2.40
2018-08-20T17:12:35.186Z,2.10
2018-08-20T17:15:02.964Z,2.33
2018-08-20T17:17:30.380Z,2.60
2018-08-20T17:19:58.060Z,2.50
2018-08-20T17:22:25.565Z,1.80
2018-08-20T17:24:53.226Z,2.27
2018-08-20T17:27:21.665Z,2.30
2018-08-20T17:29:51.965Z,5.40
2018-08-20T17:32:19.473Z,18.23
2018-08-20T17:34:46.987Z,20.97
2018-08-20T17:37:14.450Z,18.60
2018-08-20T17:39:55.856Z,13.20
2018-08-20T17:42:24.271Z,9.87
2018-08-20T17:44:51.687Z,6.47
2018-08-20T17:47:21.843Z,4.80
2018-08-20T17:49:50.382Z,3.97
2018-08-20T17:52:18.445Z,2.80
2018-08-20T17:54:45.913Z,2.37
2018-08-20T17:57:13.358Z,2.23
2018-08-20T17:59:41.150Z,2.20
2018-08-20T18:02:13.219Z,2.00
2018-08-20T18:04:40.909Z,2.50
2018-08-20T18:07:08.466Z,1.53
2018-08-20T18:09:36.125Z,2.10
2018-08-20T18:12:04.110Z,2.07
2018-08-20T18:14:31.855Z,1.63
2018-08-20T18:16:59.414Z,2.33
2018-08-20T18:19:27.086Z,1.83
2018-08-20T18:21:54.766Z,2.33
2018-08-20T18:24:22.548Z,2.23
2018-08-20T18:26:54.843Z,2.70
2018-08-20T18:29:22.406Z,2.30
2018-08-20T18:31:52.358Z,2.33
2018-08-20T18:34:20.188Z,2.63
2018-08-20T18:36:47.987Z,2.40
2018-08-20T18:39:15.534Z,2.30
2018-08-20T18:41:52.799Z,1.87
2018-08-20T18:44:21.960Z,2.30
2018-08-20T18:46:50.063Z,2.00
2018-08-20T18:49:18.123Z,2.33
2018-08-20T18:51:46.942Z,2.23
2018-08-20T18:54:14.973Z,2.03
2018-08-20T18:56:44.189Z,2.70
2018-08-20T18:59:11.716Z,2.03
2018-08-20T19:01:39.593Z,2.03
2018-08-20T19:04:07.074Z,2.50
2018-08-20T19:06:34.733Z,1.80
2018-08-20T19:09:03.156Z,1.60
2018-08-20T19:11:30.913Z,3.20
2018-08-20T19:14:04.041Z,25.30
2018-08-20T19:16:35.655Z,19.90
2018-08-20T19:19:03.641Z,12.67
2018-08-20T19:21:31.993Z,6.90
2018-08-20T19:24:00.622Z,3.80
2018-08-20T19:26:29.557Z,2.73
2018-08-20T19:28:57.651Z,2.37
2018-08-20T19:31:25.186Z,2.33
2018-08-20T19:33:52.992Z,2.20
2018-08-20T19:36:20.447Z,2.57
2018-08-20T19:38:48.383Z,2.50
2018-08-20T19:41:16.018Z,2.23
2018-08-20T19:43:48.606Z,2.10
2018-08-20T19:46:23.844Z,2.20
2018-08-20T19:48:56.200Z,2.10
2018-08-20T19:51:23.698Z,1.90
2018-08-20T19:53:51.502Z,1.87
2018-08-20T19:56:19.201Z,2.30
2018-08-20T19:58:46.729Z,2.27
2018-08-20T20:01:15.845Z,2.57
2018-08-20T20:03:45.743Z,2.00
2018-08-20T20:06:14.073Z,2.20
2018-08-20T20:08:41.777Z,1.70
2018-08-20T20:11:17.666Z,1.73
2018-08-20T20:13:47.450Z,2.03
2018-08-20T20:16:15.137Z,2.20
2018-08-20T20:18:42.787Z,2.03
2018-08-20T20:21:10.424Z,2.17
2018-08-20T20:23:38.213Z,1.60
2018-08-20T20:26:05.714Z,1.47
2018-08-20T20:28:33.478Z,2.10
2018-08-20T20:31:00.934Z,1.67
2018-08-20T20:33:28.731Z,2.17
2018-08-20T20:35:56.370Z,1.40
2018-08-20T20:38:23.848Z,1.50
2018-08-20T20:40:51.276Z,1.63
2018-08-20T20:43:23.289Z,1.70
2018-08-20T20:45:51.083Z,2.00
2018-08-20T20:48:18.581Z,2.07
2018-08-20T20:50:46.126Z,1.93
2018-08-20T20:53:13.620Z,1.53
2018-08-20T20:55:41.139Z,1.73
2018-08-20T20:58:09.108Z,2.00
2018-08-20T21:00:36.602Z,1.97
2018-08-20T21:03:21.379Z,1.70
2018-08-20T21:05:48.896Z,2.50
2018-08-20T21:08:17.437Z,2.70
2018-08-20T21:10:49.613Z,1.97
2018-08-20T21:13:18.343Z,2.30
2018-08-20T21:15:52.545Z,2.20
2018-08-20T21:18:20.442Z,2.00
2018-08-20T21:20:49.942Z,1.70
2018-08-20T21:23:17.810Z,1.73
2018-08-20T21:25:45.283Z,1.50
2018-08-20T21:28:12.781Z,2.10
2018-08-20T21:30:43.675Z,1.43
2018-08-20T21:33:11.826Z,2.17
2018-08-20T21:35:39.406Z,1.67
2018-08-20T21:38:06.922Z,1.80
2018-08-20T21:40:34.470Z,1.73
2018-08-20T21:43:01.984Z,1.70
2018-08-20T21:45:29.541Z,1.50
2018-08-20T21:47:57.329Z,1.80
2018-08-20T21:50:24.806Z,1.40
2018-08-20T21:52:52.286Z,1.30
2018-08-20T21:55:19.862Z,1.53
2018-08-20T21:57:51.927Z,1.73
2018-08-20T22:00:20.087Z,1.53
2018-08-20T22:02:52.765Z,1.60
2018-08-20T22:05:20.212Z,1.57
2018-08-20T22:07:47.982Z,1.57
2018-08-20T22:10:15.650Z,1.83
2018-08-20T22:12:43.338Z,1.53
2018-08-20T22:15:10.891Z,1.70
2018-08-20T22:17:41.230Z,1.90
2018-08-20T22:20:08.757Z,1.33
2018-08-20T22:22:36.307Z,1.33
2018-08-20T22:25:08.501Z,1.80
2018-08-20T22:27:41.673Z,1.50
2018-08-20T22:30:09.135Z,2.57
2018-08-20T22:32:36.666Z,1.50
2018-08-20T22:35:10.490Z,1.73
2018-08-20T22:37:38.031Z,1.87
2018-08-20T22:40:06.017Z,1.60
2018-08-20T22:42:44.881Z,1.93
2018-08-20T22:45:15.502Z,1.73
2018-08-20T22:47:43.422Z,2.00
2018-08-20T22:50:10.855Z,2.40
2018-08-20T22:52:41.343Z,1.90
2018-08-20T22:55:08.751Z,1.90
2018-08-20T22:57:36.214Z,1.63
2018-08-20T23:00:11.131Z,1.57
2018-08-20T23:02:39.283Z,1.23
2018-08-20T23:05:11.342Z,1.60
2018-08-20T23:07:38.889Z,2.20
2018-08-20T23:10:06.456Z,1.40
2018-08-20T23:12:38.419Z,1.43
2018-08-20T23:15:05.949Z,1.40
2018-08-20T23:17:33.382Z,1.60
2018-08-20T23:20:01.178Z,1.30
2018-08-20T23:22:29.730Z,1.40
2018-08-20T23:24:57.681Z,1.70
2018-08-20T23:27:30.898Z,1.77
2018-08-20T23:29:58.346Z,1.83
2018-08-20T23:32:31.746Z,1.53
2018-08-20T23:34:59.339Z,1.63
2018-08-20T23:37:26.750Z,1.87
2018-08-20T23:39:54.090Z,2.00
2018-08-20T23:42:21.523Z,1.57
2018-08-20T23:44:49.023Z,1.70
2018-08-20T23:47:16.617Z,1.60
2018-08-20T23:49:44.015Z,1.60
2018-08-20T23:52:11.386Z,1.70
2018-08-20T23:54:38.937Z,1.40
2018-08-20T23:57:06.358Z,1.20
2018-08-20T23:59:33.767Z,2.00
